createdAt,value
2023-09-09T00:00:54.393Z,21.50
2023-09-09T00:03:23.145Z,21.40
2023-09-09T00:05:53.435Z,21.40
2023-09-09T00:08:21.009Z,21.40
2023-09-09T00:10:48.374Z,21.30
2023-09-09T00:13:16.122Z,21.20
2023-09-09T00:15:43.892Z,21.10
2023-09-09T00:18:11.228Z,21.20
2023-09-09T00:20:42.178Z,21.20
2023-09-09T00:23:09.620Z,21.10
2023-09-09T00:25:41.893Z,21.10
2023-09-09T00:28:12.155Z,21.10
2023-09-09T00:30:40.286Z,21.10
2023-09-09T00:33:10.476Z,21.10
2023-09-09T00:35:41.048Z,21.10
2023-09-09T00:38:12.294Z,21.20
2023-09-09T00:40:39.695Z,21.20
2023-09-09T00:43:06.942Z,21.30
2023-09-09T00:45:36.027Z,21.30
2023-09-09T00:48:03.295Z,21.30
2023-09-09T00:50:30.640Z,21.20
2023-09-09T00:52:57.854Z,21.30
2023-09-09T00:55:28.562Z,21.30
2023-09-09T00:57:55.604Z,21.30
2023-09-09T01:00:22.802Z,21.30
2023-09-09T01:02:49.945Z,21.20
2023-09-09T01:05:17.603Z,21.20
2023-09-09T01:07:46.188Z,21.20
2023-09-09T01:10:14.767Z,21.20
2023-09-09T01:12:44.876Z,21.20
2023-09-09T01:15:13.323Z,21.20
2023-09-09T01:17:41.837Z,21.10
2023-09-09T01:20:17.460Z,20.90
2023-09-09T01:22:47.478Z,21.00
2023-09-09T01:25:14.659Z,21.00
2023-09-09T01:27:42.310Z,21.00
2023-09-09T01:30:12.491Z,21.10
2023-09-09T01:32:40.299Z,21.10
2023-09-09T01:35:08.307Z,21.10
2023-09-09T01:37:36.011Z,21.00
2023-09-09T01:40:11.645Z,20.90
2023-09-09T01:42:40.060Z,20.80
2023-09-09T01:45:09.372Z,20.80
2023-09-09T01:47:36.685Z,20.80
2023-09-09T01:50:04.529Z,20.80
2023-09-09T01:52:31.751Z,20.90
2023-09-09T01:54:59.691Z,20.80
2023-09-09T01:57:28.072Z,20.80
2023-09-09T01:59:55.842Z,20.70
2023-09-09T02:02:23.426Z,20.70
2023-09-09T02:04:50.746Z,20.50
2023-09-09T02:07:17.826Z,20.60
2023-09-09T02:09:45.966Z,20.60
2023-09-09T02:12:12.992Z,20.50
2023-09-09T02:14:40.265Z,20.50
2023-09-09T02:17:07.416Z,20.60
2023-09-09T02:19:34.700Z,20.50
2023-09-09T02:22:01.832Z,20.50
2023-09-09T02:24:28.982Z,20.50
2023-09-09T02:26:56.203Z,20.40
2023-09-09T02:29:23.465Z,20.30
2023-09-09T02:31:50.553Z,20.20
2023-09-09T02:34:18.493Z,20.00
2023-09-09T02:37:08.636Z,20.00
2023-09-09T02:39:35.817Z,19.90
2023-09-09T02:42:03.068Z,19.80
2023-09-09T02:44:30.284Z,19.70
2023-09-09T02:46:57.673Z,19.60
2023-09-09T02:49:24.955Z,19.50
2023-09-09T02:51:52.082Z,19.30
2023-09-09T02:54:19.293Z,19.10
2023-09-09T02:56:47.459Z,19.00
2023-09-09T02:59:15.137Z,18.80
2023-09-09T03:01:42.845Z,18.60
2023-09-09T03:13:24.133Z,18.30
2023-09-09T03:16:10.209Z,18.40
2023-09-09T03:18:37.602Z,18.30
2023-09-09T03:21:04.750Z,18.50
2023-09-09T03:23:31.803Z,18.50
2023-09-09T03:25:58.850Z,18.40
2023-09-09T03:28:26.331Z,18.40
2023-09-09T03:30:59.126Z,18.50
2023-09-09T03:33:29.308Z,18.60
2023-09-09T03:35:56.427Z,18.60
2023-09-09T03:38:24.380Z,18.70
2023-09-09T03:40:51.576Z,18.60
2023-09-09T03:43:18.830Z,18.60
2023-09-09T03:45:47.471Z,18.60
2023-09-09T03:48:14.478Z,18.70
2023-09-09T03:50:41.874Z,18.70
2023-09-09T03:53:09.109Z,18.80
2023-09-09T03:55:36.216Z,18.70
2023-09-09T03:58:03.544Z,18.80
2023-09-09T04:00:32.001Z,18.60
2023-09-09T04:02:59.442Z,18.50
2023-09-09T04:05:27.195Z,18.50
2023-09-09T04:07:54.230Z,18.50
2023-09-09T04:10:21.790Z,18.50
2023-09-09T04:12:50.187Z,18.60
2023-09-09T04:15:17.231Z,18.50
2023-09-09T04:17:45.431Z,18.60
2023-09-09T04:20:12.653Z,18.50
2023-09-09T04:22:44.010Z,18.50
2023-09-09T04:25:11.876Z,18.50
2023-09-09T04:27:39.032Z,18.50
2023-09-09T04:30:08.219Z,18.40
2023-09-09T04:32:35.956Z,18.30
2023-09-09T04:35:04.844Z,18.30
2023-09-09T04:37:33.811Z,18.30
2023-09-09T04:40:02.536Z,18.20
2023-09-09T04:42:31.293Z,18.40
2023-09-09T04:44:58.741Z,18.40
2023-09-09T04:47:26.020Z,18.40
2023-09-09T04:49:53.283Z,18.30
2023-09-09T04:52:21.946Z,18.20
2023-09-09T04:54:49.224Z,18.20
2023-09-09T04:57:18.320Z,18.20
2023-09-09T04:59:48.932Z,18.10
2023-09-09T05:02:16.415Z,18.10
2023-09-09T05:04:44.107Z,18.10
2023-09-09T05:07:12.591Z,18.00
2023-09-09T05:09:43.256Z,18.10
2023-09-09T05:12:10.794Z,18.10
2023-09-09T05:14:37.875Z,18.10
2023-09-09T05:17:05.522Z,18.00
2023-09-09T05:19:34.261Z,18.00
2023-09-09T05:22:01.424Z,17.90
2023-09-09T05:24:28.730Z,17.90
2023-09-09T05:26:56.080Z,17.80
2023-09-09T05:29:23.336Z,17.90
2023-09-09T05:31:51.891Z,18.00
2023-09-09T05:34:19.000Z,17.90
2023-09-09T05:36:46.110Z,17.70
2023-09-09T05:39:13.918Z,17.70
2023-09-09T05:41:41.080Z,17.70
2023-09-09T05:44:08.285Z,17.70
2023-09-09T05:46:35.486Z,17.80
2023-09-09T05:49:08.274Z,17.70
2023-09-09T05:51:36.019Z,17.80
2023-09-09T05:54:06.426Z,17.80
2023-09-09T05:56:35.463Z,17.70
2023-09-09T05:59:10.600Z,17.80
2023-09-09T06:01:38.131Z,17.70
2023-09-09T06:04:05.375Z,17.70
2023-09-09T06:06:32.675Z,17.60
2023-09-09T06:09:00.007Z,17.60
2023-09-09T06:11:27.456Z,17.60
2023-09-09T06:13:54.576Z,17.60
2023-09-09T06:16:21.744Z,17.70
2023-09-09T06:18:49.148Z,17.60
2023-09-09T06:21:16.276Z,17.70
2023-09-09T06:23:43.502Z,17.70
2023-09-09T06:26:12.054Z,17.70
2023-09-09T06:28:39.712Z,17.70
2023-09-09T06:31:08.660Z,17.70
2023-09-09T06:33:36.410Z,17.80
2023-09-09T06:36:04.229Z,18.00
2023-09-09T06:38:31.455Z,17.80
2023-09-09T06:40:58.588Z,17.70
2023-09-09T06:43:25.634Z,17.70
2023-09-09T06:45:52.801Z,17.80
2023-09-09T06:48:20.118Z,17.80
2023-09-09T06:50:50.791Z,17.80
2023-09-09T06:53:17.859Z,17.90
2023-09-09T06:55:50.984Z,17.80
2023-09-09T06:58:18.543Z,17.90
2023-09-09T07:01:34.520Z,18.00
2023-09-09T07:04:40.375Z,18.10
2023-09-09T07:07:33.512Z,18.10
2023-09-09T07:10:15.048Z,18.40
2023-09-09T07:12:45.715Z,18.40
2023-09-09T07:15:13.426Z,18.40
2023-09-09T07:17:52.869Z,18.60
2023-09-09T07:20:23.343Z,18.70
2023-09-09T07:23:50.626Z,18.70
2023-09-09T07:26:47.476Z,18.90
2023-09-09T07:29:20.484Z,19.10
2023-09-09T07:31:57.421Z,19.30
2023-09-09T07:34:50.694Z,19.40
2023-09-09T07:41:05.339Z,19.40
2023-09-09T07:43:36.388Z,19.50
2023-09-09T07:46:04.284Z,19.70
2023-09-09T07:48:32.714Z,19.70
2023-09-09T07:51:00.587Z,19.90
2023-09-09T07:53:28.609Z,20.00
2023-09-09T07:55:55.749Z,20.20
2023-09-09T07:58:27.163Z,20.30
2023-09-09T08:01:07.593Z,20.40
2023-09-09T08:03:35.804Z,20.60
2023-09-09T08:06:07.702Z,20.70
2023-09-09T08:08:37.033Z,20.80
2023-09-09T08:11:05.425Z,21.00
2023-09-09T08:13:36.029Z,21.00
2023-09-09T08:16:03.878Z,21.20
2023-09-09T08:18:31.838Z,21.30
2023-09-09T08:21:02.271Z,21.50
2023-09-09T08:23:34.031Z,21.70
2023-09-09T08:26:01.142Z,21.80
2023-09-09T08:28:31.200Z,22.00
2023-09-09T08:32:21.931Z,22.00
2023-09-09T08:34:51.722Z,22.10
2023-09-09T08:37:22.672Z,22.20
2023-09-09T08:39:54.993Z,22.40
2023-09-09T08:43:00.553Z,22.40
2023-09-09T08:45:46.313Z,22.50
2023-09-09T08:48:21.685Z,22.60
2023-09-09T08:50:50.003Z,22.80
2023-09-09T08:53:26.453Z,23.00
2023-09-09T08:56:33.362Z,23.10
2023-09-09T08:59:02.731Z,23.30
2023-09-09T09:01:40.608Z,23.50
2023-09-09T09:04:39.648Z,23.30
2023-09-09T09:07:52.442Z,23.30
2023-09-09T09:10:48.600Z,23.20
2023-09-09T09:13:16.979Z,23.50
2023-09-09T09:15:48.481Z,23.60
2023-09-09T09:18:15.940Z,23.70
2023-09-09T09:20:43.690Z,23.80
2023-09-09T09:26:28.998Z,24.00
2023-09-09T09:28:58.159Z,24.20
2023-09-09T09:31:26.858Z,24.30
2023-09-09T09:33:54.895Z,24.40
2023-09-09T09:36:23.269Z,24.50
2023-09-09T09:38:52.013Z,24.70
2023-09-09T09:41:20.518Z,24.80
2023-09-09T09:43:49.106Z,25.00
2023-09-09T09:46:21.212Z,25.10
2023-09-09T09:48:49.447Z,25.30
2023-09-09T09:51:17.267Z,25.30
2023-09-09T09:53:50.628Z,25.30
2023-09-09T09:56:18.689Z,25.30
2023-09-09T09:58:46.984Z,25.30
2023-09-09T10:01:14.212Z,25.30
2023-09-09T10:03:59.855Z,25.50
2023-09-09T10:06:28.480Z,25.70
2023-09-09T10:09:12.832Z,25.90
2023-09-09T10:11:55.259Z,25.90
2023-09-09T10:14:26.538Z,25.90
2023-09-09T10:16:57.285Z,26.00
2023-09-09T10:19:25.232Z,26.00
2023-09-09T10:21:53.249Z,26.10
2023-09-09T10:24:20.717Z,26.10
2023-09-09T10:26:49.727Z,26.10
2023-09-09T10:29:22.502Z,26.20
2023-09-09T10:31:53.144Z,26.20
2023-09-09T10:34:22.990Z,26.30
2023-09-09T10:37:01.917Z,26.30
2023-09-09T10:39:30.759Z,26.50
2023-09-09T10:41:59.486Z,26.80
2023-09-09T10:44:28.875Z,26.60
2023-09-09T10:46:57.754Z,26.80
2023-09-09T10:49:30.813Z,26.50
2023-09-09T10:51:59.234Z,26.70
2023-09-09T10:54:47.632Z,26.90
2023-09-09T10:57:15.581Z,27.10
2023-09-09T10:59:42.871Z,27.20
2023-09-09T11:02:12.113Z,27.10
2023-09-09T11:04:43.184Z,27.20
2023-09-09T11:07:18.002Z,27.40
2023-09-09T11:09:53.145Z,27.50
2023-09-09T11:12:28.096Z,27.70
2023-09-09T11:15:07.316Z,27.80
2023-09-09T11:17:40.356Z,27.80
2023-09-09T11:20:13.091Z,27.70
2023-09-09T11:22:43.854Z,27.90
2023-09-09T11:25:11.148Z,28.00
2023-09-09T11:27:39.069Z,27.90
2023-09-09T11:30:06.773Z,27.90
2023-09-09T11:32:34.292Z,28.00
2023-09-09T11:35:03.153Z,27.90
2023-09-09T11:37:33.168Z,28.20
2023-09-09T11:40:00.389Z,28.40
2023-09-09T11:42:27.476Z,28.30
2023-09-09T11:44:54.919Z,28.50
2023-09-09T11:47:22.038Z,28.50
2023-09-09T11:49:52.378Z,28.60
2023-09-09T11:52:24.667Z,28.60
2023-09-09T11:54:52.016Z,28.50
2023-09-09T11:57:19.120Z,28.60
2023-09-09T11:59:51.506Z,28.50
2023-09-09T12:02:20.022Z,28.70
2023-09-09T12:04:59.146Z,28.80
2023-09-09T12:07:30.064Z,29.10
2023-09-09T12:09:58.572Z,29.00
2023-09-09T12:12:26.195Z,28.70
2023-09-09T12:14:56.292Z,29.00
2023-09-09T12:17:24.813Z,28.40
2023-09-09T12:20:09.463Z,28.70
2023-09-09T12:22:42.395Z,29.00
2023-09-09T12:25:39.010Z,29.10
2023-09-09T12:28:17.709Z,29.10
2023-09-09T12:30:44.926Z,29.10
2023-09-09T12:33:15.133Z,29.50
2023-09-09T12:35:46.289Z,29.60
2023-09-09T12:38:13.584Z,29.40
2023-09-09T12:40:50.154Z,29.40
2023-09-09T12:43:27.879Z,29.50
2023-09-09T12:45:57.694Z,29.50
2023-09-09T12:48:25.036Z,29.10
2023-09-09T12:50:54.874Z,29.40
2023-09-09T12:53:22.844Z,29.20
2023-09-09T12:55:50.118Z,29.30
2023-09-09T12:58:17.217Z,29.50
2023-09-09T13:00:44.768Z,29.60
2023-09-09T13:03:14.849Z,29.80
2023-09-09T13:05:42.631Z,29.60
2023-09-09T13:08:10.170Z,29.50
2023-09-09T13:10:37.742Z,29.70
2023-09-09T13:13:04.864Z,29.70
2023-09-09T13:15:32.023Z,29.90
2023-09-09T13:18:00.605Z,30.00
2023-09-09T13:20:27.861Z,29.70
2023-09-09T13:22:55.178Z,29.80
2023-09-09T13:25:22.565Z,29.90
2023-09-09T13:27:50.706Z,29.90
2023-09-09T13:30:21.805Z,30.00
2023-09-09T13:32:49.154Z,30.10
2023-09-09T13:35:16.537Z,30.00
2023-09-09T13:37:43.989Z,30.10
2023-09-09T13:40:11.518Z,30.20
2023-09-09T13:42:40.072Z,30.20
2023-09-09T13:45:11.157Z,30.30
2023-09-09T13:47:39.560Z,30.30
2023-09-09T13:50:08.284Z,30.30
2023-09-09T13:52:35.523Z,30.30
2023-09-09T13:55:06.232Z,30.30
2023-09-09T13:57:33.979Z,30.10
2023-09-09T14:00:05.059Z,30.10
2023-09-09T14:02:32.809Z,30.30
2023-09-09T14:05:00.318Z,30.60
2023-09-09T14:07:27.564Z,30.90
2023-09-09T14:09:54.573Z,31.10
2023-09-09T14:12:27.139Z,30.90
2023-09-09T14:14:54.311Z,30.70
2023-09-09T14:17:22.497Z,30.70
2023-09-09T14:19:49.691Z,30.70
2023-09-09T14:22:16.755Z,30.60
2023-09-09T14:24:44.575Z,30.70
2023-09-09T14:27:14.097Z,30.50
2023-09-09T14:29:42.575Z,30.50
2023-09-09T14:32:09.914Z,30.60
2023-09-09T14:34:37.461Z,30.70
2023-09-09T14:37:04.860Z,30.90
2023-09-09T14:39:32.171Z,30.80
2023-09-09T14:41:59.223Z,30.60
2023-09-09T14:44:26.371Z,30.80
2023-09-09T14:46:53.537Z,30.90
2023-09-09T14:49:21.815Z,30.80
2023-09-09T14:51:49.042Z,30.80
2023-09-09T14:54:16.313Z,30.80
2023-09-09T14:56:43.584Z,31.10
2023-09-09T14:59:10.659Z,30.80
2023-09-09T15:01:37.890Z,30.50
2023-09-09T15:04:05.111Z,30.60
2023-09-09T15:06:32.168Z,30.70
2023-09-09T15:08:59.231Z,30.60
2023-09-09T15:11:26.496Z,30.50
2023-09-09T15:13:53.718Z,30.50
2023-09-09T15:16:21.784Z,30.70
2023-09-09T15:18:49.266Z,31.00
2023-09-09T15:21:16.671Z,30.90
2023-09-09T15:23:43.756Z,30.80
2023-09-09T15:26:11.103Z,30.80
2023-09-09T15:28:38.590Z,31.10
2023-09-09T15:31:06.858Z,31.10
2023-09-09T15:33:34.185Z,30.90
2023-09-09T15:36:02.676Z,30.70
2023-09-09T15:38:29.973Z,30.70
2023-09-09T15:40:57.141Z,30.70
2023-09-09T15:43:24.455Z,30.70
2023-09-09T15:46:03.834Z,30.50
2023-09-09T15:48:40.321Z,30.70
2023-09-09T15:51:07.627Z,30.60
2023-09-09T15:53:34.979Z,30.60
2023-09-09T15:56:02.361Z,30.40
2023-09-09T15:58:29.405Z,30.40
2023-09-09T16:01:00.984Z,30.30
2023-09-09T16:03:28.206Z,30.40
2023-09-09T16:06:02.062Z,30.30
2023-09-09T16:08:29.164Z,30.30
2023-09-09T16:10:57.910Z,30.20
2023-09-09T16:13:26.395Z,30.10
2023-09-09T16:16:10.532Z,30.10
2023-09-09T16:18:42.466Z,30.00
2023-09-09T16:21:09.826Z,30.10
2023-09-09T16:23:37.193Z,30.00
2023-09-09T16:26:05.861Z,30.00
2023-09-09T16:28:33.093Z,29.90
2023-09-09T16:31:07.105Z,30.00
2023-09-09T16:33:36.550Z,29.80
2023-09-09T16:36:05.280Z,29.70
2023-09-09T16:38:33.941Z,29.70
2023-09-09T16:41:01.593Z,29.70
2023-09-09T16:43:28.924Z,29.70
2023-09-09T16:45:56.584Z,29.60
2023-09-09T16:48:23.675Z,29.60
2023-09-09T16:50:51.386Z,29.50
2023-09-09T16:53:22.016Z,29.40
2023-09-09T16:55:50.349Z,29.30
2023-09-09T16:58:17.646Z,29.30
2023-09-09T17:00:49.865Z,29.20
2023-09-09T17:03:17.519Z,29.10
2023-09-09T17:05:46.519Z,29.10
2023-09-09T17:08:13.741Z,28.90
2023-09-09T17:10:42.948Z,28.80
2023-09-09T17:13:11.231Z,28.70
2023-09-09T17:15:41.937Z,28.70
2023-09-09T17:18:10.558Z,28.60
2023-09-09T17:20:37.817Z,28.60
2023-09-09T17:23:06.921Z,28.60
2023-09-09T17:25:34.101Z,28.40
2023-09-09T17:28:01.286Z,28.40
2023-09-09T17:30:30.078Z,28.30
2023-09-09T17:32:57.688Z,28.20
2023-09-09T17:35:27.613Z,28.10
2023-09-09T17:37:55.680Z,28.10
2023-09-09T17:40:23.862Z,28.10
2023-09-09T17:42:51.412Z,27.90
2023-09-09T17:45:19.578Z,27.90
2023-09-09T17:47:48.069Z,27.80
2023-09-09T17:50:15.400Z,27.70
2023-09-09T17:52:43.118Z,27.70
2023-09-09T17:55:12.507Z,27.60
2023-09-09T17:57:40.244Z,27.50
2023-09-09T18:00:08.533Z,27.60
2023-09-09T18:02:35.645Z,27.50
2023-09-09T18:05:03.077Z,27.30
2023-09-09T18:07:30.486Z,27.20
2023-09-09T18:09:57.662Z,27.10
2023-09-09T18:12:25.959Z,27.00
2023-09-09T18:14:56.306Z,26.90
2023-09-09T18:17:23.540Z,26.90
2023-09-09T18:19:54.845Z,26.80
2023-09-09T18:22:22.290Z,26.70
2023-09-09T18:24:50.565Z,26.70
2023-09-09T18:27:20.488Z,26.60
2023-09-09T18:29:49.181Z,26.50
2023-09-09T18:32:16.660Z,26.40
2023-09-09T18:34:43.778Z,26.40
2023-09-09T18:37:10.955Z,26.30
2023-09-09T18:39:38.594Z,26.20
2023-09-09T18:42:05.986Z,26.10
2023-09-09T18:44:33.213Z,26.10
2023-09-09T18:47:00.551Z,26.00
2023-09-09T18:49:29.336Z,26.00
2023-09-09T18:51:57.532Z,25.90
2023-09-09T18:54:24.996Z,25.90
2023-09-09T18:56:54.603Z,25.80
2023-09-09T18:59:24.575Z,25.80
2023-09-09T19:01:55.495Z,25.70
2023-09-09T19:04:23.405Z,25.60
2023-09-09T19:09:34.936Z,25.50
2023-09-09T19:12:02.917Z,25.40
2023-09-09T19:14:35.657Z,25.40
2023-09-09T19:17:05.779Z,25.30
2023-09-09T19:19:34.370Z,25.30
2023-09-09T19:22:07.283Z,25.30
2023-09-09T19:24:38.159Z,25.20
2023-09-09T19:27:05.431Z,25.20
2023-09-09T19:29:32.621Z,25.10
2023-09-09T19:31:59.882Z,25.10
2023-09-09T19:34:30.069Z,25.00
2023-09-09T19:36:57.709Z,24.90
2023-09-09T19:39:24.916Z,24.90
2023-09-09T19:41:52.230Z,24.80
2023-09-09T19:44:20.357Z,24.70
2023-09-09T19:46:47.907Z,24.70
2023-09-09T19:49:16.124Z,24.60
2023-09-09T19:51:43.350Z,24.60
2023-09-09T19:54:11.441Z,24.60
2023-09-09T19:56:38.599Z,24.50
2023-09-09T19:59:35.908Z,24.50
2023-09-09T20:02:26.550Z,24.50
2023-09-09T20:04:54.012Z,24.50
2023-09-09T20:07:24.379Z,24.40
2023-09-09T20:09:52.448Z,24.40
2023-09-09T20:12:22.493Z,24.20
2023-09-09T20:14:50.140Z,24.10
2023-09-09T20:17:21.352Z,24.30
2023-09-09T20:19:48.753Z,24.10
2023-09-09T20:22:18.987Z,24.10
2023-09-09T20:24:49.411Z,24.00
2023-09-09T20:27:18.095Z,24.00
2023-09-09T20:29:45.663Z,23.90
2023-09-09T20:32:13.461Z,23.90
2023-09-09T20:34:43.082Z,23.90
2023-09-09T20:37:13.101Z,23.90
2023-09-09T20:39:51.361Z,23.80
2023-09-09T20:42:27.177Z,23.70
2023-09-09T20:45:00.361Z,23.60
2023-09-09T20:47:27.960Z,23.60
2023-09-09T20:49:59.376Z,23.60
2023-09-09T20:52:26.504Z,23.60
2023-09-09T20:54:53.808Z,23.70
2023-09-09T20:57:20.857Z,23.60
2023-09-09T20:59:51.931Z,23.60
2023-09-09T21:02:21.314Z,23.60
2023-09-09T21:04:51.950Z,23.60
2023-09-09T21:07:19.090Z,23.60
2023-09-09T21:09:46.084Z,23.50
2023-09-09T21:12:15.772Z,23.50
2023-09-09T21:14:42.794Z,23.50
2023-09-09T21:17:09.947Z,23.50
2023-09-09T21:19:37.076Z,23.50
2023-09-09T21:22:04.261Z,23.40
2023-09-09T21:24:31.288Z,23.30
2023-09-09T21:27:00.907Z,23.30
2023-09-09T21:29:28.254Z,23.30
2023-09-09T21:31:55.752Z,23.20
2023-09-09T21:34:22.856Z,23.30
2023-09-09T21:36:49.921Z,23.20
2023-09-09T21:39:16.992Z,23.20
2023-09-09T21:41:44.049Z,23.10
2023-09-09T21:44:11.977Z,23.10
2023-09-09T21:46:39.168Z,23.20
2023-09-09T21:49:06.679Z,23.10
2023-09-09T21:51:33.693Z,23.00
2023-09-09T21:54:00.955Z,23.00
2023-09-09T21:56:27.994Z,22.90
2023-09-09T22:03:51.357Z,22.90
2023-09-09T22:06:34.980Z,22.80
2023-09-09T22:10:07.553Z,22.70
2023-09-09T22:12:38.628Z,22.80
2023-09-09T22:22:44.365Z,22.80
2023-09-09T22:26:04.306Z,22.80
2023-09-09T22:28:40.274Z,22.60
2023-09-09T22:31:37.416Z,22.60
2023-09-09T22:34:09.284Z,22.50
2023-09-09T22:38:28.044Z,22.50
2023-09-09T22:42:08.696Z,22.50
2023-09-09T22:45:27.933Z,22.50
2023-09-09T22:51:08.781Z,22.50
2023-09-09T22:53:38.875Z,22.50
2023-09-09T22:56:06.087Z,22.50
2023-09-09T22:58:35.146Z,22.40
2023-09-09T23:01:05.173Z,22.40
2023-09-09T23:03:32.553Z,22.30
2023-09-09T23:06:04.983Z,22.20
2023-09-09T23:08:33.108Z,22.20
2023-09-09T23:11:12.788Z,22.20
2023-09-09T23:13:43.156Z,22.20
2023-09-09T23:16:10.815Z,22.30
2023-09-09T23:18:39.771Z,22.30
2023-09-09T23:21:07.241Z,22.20
2023-09-09T23:23:40.443Z,22.30
2023-09-09T23:26:11.053Z,22.20
2023-09-09T23:28:40.334Z,22.20
2023-09-09T23:31:09.134Z,22.10
2023-09-09T23:33:38.787Z,22.10
2023-09-09T23:36:16.628Z,22.10
2023-09-09T23:38:50.775Z,22.00
2023-09-09T23:41:23.798Z,22.00
2023-09-09T23:44:58.633Z,22.00
2023-09-09T23:47:50.533Z,21.90
2023-09-09T23:50:21.770Z,21.90
2023-09-09T23:52:53.518Z,21.80
2023-09-09T23:55:25.422Z,21.80
2023-09-09T23:58:00.738Z,21.80
